createdAt,value
2022-08-22T00:00:37.456Z,9.82
2022-08-22T00:02:57.678Z,8.05
2022-08-22T00:06:01.363Z,9.90
2022-08-22T00:11:11.859Z,8.77
2022-08-22T00:16:20.971Z,8.20
2022-08-22T00:21:34.516Z,7.20
2022-08-22T00:26:47.381Z,7.10
2022-08-22T00:31:56.077Z,7.38
2022-08-22T00:37:08.155Z,7.20
2022-08-22T00:42:31.828Z,6.20
2022-08-22T00:47:52.706Z,6.50
2022-08-22T00:53:11.074Z,6.18
2022-08-22T00:58:41.419Z,6.60
2022-08-22T01:04:16.091Z,6.38
2022-08-22T01:09:30.163Z,6.78
2022-08-22T01:14:45.151Z,7.00
2022-08-22T01:20:22.161Z,6.93
2022-08-22T01:25:57.741Z,6.65
2022-08-22T01:31:28.845Z,6.25
2022-08-22T01:36:55.153Z,6.40
2022-08-22T01:42:30.813Z,6.45
2022-08-22T01:47:39.551Z,6.88
2022-08-22T01:52:49.768Z,5.97
2022-08-22T01:57:58.344Z,6.75
2022-08-22T02:03:15.485Z,7.28
2022-08-22T02:08:30.421Z,6.40
2022-08-22T02:13:55.476Z,7.00
2022-08-22T02:19:09.769Z,7.32
2022-08-22T02:24:27.110Z,6.30
2022-08-22T02:29:39.447Z,7.10
2022-08-22T02:34:49.167Z,6.88
2022-08-22T02:40:05.335Z,7.18
2022-08-22T02:45:23.341Z,6.22
2022-08-22T02:50:36.649Z,5.32
2022-08-22T02:55:50.592Z,3.75
2022-08-22T03:01:17.480Z,4.05
2022-08-22T03:06:41.785Z,3.65
2022-08-22T03:11:52.416Z,3.45
2022-08-22T03:17:03.705Z,3.10
2022-08-22T03:22:14.650Z,3.58
2022-08-22T03:27:32.724Z,3.13
2022-08-22T03:32:59.314Z,3.17
2022-08-22T03:38:22.477Z,2.70
2022-08-22T03:43:41.877Z,3.30
2022-08-22T03:49:14.662Z,3.17
2022-08-22T03:54:54.134Z,5.15
2022-08-22T04:00:28.478Z,3.13
2022-08-22T04:06:04.019Z,4.10
2022-08-22T04:11:41.881Z,3.15
2022-08-22T04:17:20.388Z,4.28
2022-08-22T04:23:06.851Z,4.72
2022-08-22T04:28:16.811Z,4.78
2022-08-22T04:33:28.124Z,4.28
2022-08-22T04:38:37.377Z,4.85
2022-08-22T04:43:58.474Z,4.82
2022-08-22T04:49:08.689Z,3.78
2022-08-22T04:54:28.161Z,3.58
2022-08-22T05:04:45.104Z,3.45
2022-08-22T05:09:52.600Z,3.55
2022-08-22T05:15:01.327Z,4.03
2022-08-22T05:20:13.483Z,3.30
2022-08-22T05:25:22.488Z,3.28
2022-08-22T05:30:31.475Z,3.38
2022-08-22T05:35:48.602Z,3.78
2022-08-22T05:40:59.016Z,3.50
2022-08-22T05:46:04.805Z,3.83
2022-08-22T05:51:19.080Z,2.78
2022-08-22T05:56:29.922Z,2.72
2022-08-22T06:01:38.155Z,2.30
2022-08-22T06:06:51.091Z,2.28
2022-08-22T06:11:59.607Z,2.13
2022-08-22T06:17:09.251Z,2.60
2022-08-22T06:22:18.854Z,2.28
2022-08-22T06:27:27.119Z,2.28
2022-08-22T06:32:58.498Z,2.95
2022-08-22T06:38:07.330Z,2.53
2022-08-22T06:43:15.686Z,1.90
2022-08-22T06:48:23.448Z,3.40
2022-08-22T06:53:35.472Z,3.00
2022-08-22T06:58:43.684Z,2.60
2022-08-22T07:03:50.579Z,2.53
2022-08-22T07:08:59.112Z,2.47
2022-08-22T07:14:07.899Z,2.20
2022-08-22T07:19:13.884Z,2.03
2022-08-22T07:24:26.265Z,2.15
2022-08-22T07:29:36.153Z,2.08
2022-08-22T07:34:52.560Z,2.88
2022-08-22T07:40:05.202Z,2.67
2022-08-22T07:45:13.750Z,2.58
2022-08-22T07:50:23.866Z,2.92
2022-08-22T07:55:31.638Z,2.80
2022-08-22T08:00:37.559Z,3.25
2022-08-22T08:05:45.879Z,3.50
2022-08-22T08:10:54.780Z,3.33
2022-08-22T08:16:00.101Z,2.75
2022-08-22T08:21:08.951Z,2.50
2022-08-22T08:26:19.401Z,2.47
2022-08-22T08:31:27.769Z,3.25
2022-08-22T08:36:50.572Z,2.58
2022-08-22T08:42:15.524Z,2.50
2022-08-22T08:47:51.401Z,2.10
2022-08-22T08:53:06.653Z,2.78
2022-08-22T08:58:30.357Z,2.92
2022-08-22T09:04:01.210Z,2.10
2022-08-22T09:09:13.996Z,1.83
2022-08-22T09:14:33.903Z,2.15
2022-08-22T09:20:18.031Z,2.08
2022-08-22T09:25:38.573Z,1.52
2022-08-22T09:31:01.710Z,1.35
2022-08-22T09:36:26.200Z,1.52
2022-08-22T09:41:40.872Z,1.85
2022-08-22T09:46:57.440Z,1.80
2022-08-22T09:52:15.640Z,1.98
2022-08-22T09:57:37.842Z,2.05
2022-08-22T10:02:50.318Z,2.15
2022-08-22T10:08:03.684Z,2.63
2022-08-22T10:13:15.075Z,1.48
2022-08-22T10:18:32.607Z,1.95
2022-08-22T10:23:39.898Z,1.70
2022-08-22T10:28:51.129Z,1.63
2022-08-22T10:34:06.257Z,2.00
2022-08-22T10:39:14.601Z,2.05
2022-08-22T10:44:24.511Z,2.00
2022-08-22T10:49:36.293Z,1.63
2022-08-22T10:54:48.515Z,2.28
2022-08-22T11:00:01.034Z,1.63
2022-08-22T11:05:50.056Z,1.75
2022-08-22T11:11:08.005Z,1.75
2022-08-22T11:16:31.649Z,1.42
2022-08-22T11:21:52.685Z,1.52
2022-08-22T11:27:07.154Z,1.67
2022-08-22T11:32:18.440Z,1.38
2022-08-22T11:37:43.417Z,1.35
2022-08-22T11:42:52.802Z,1.80
2022-08-22T11:48:03.088Z,1.65
2022-08-22T11:53:24.531Z,1.17
2022-08-22T11:58:53.557Z,1.98
2022-08-22T12:04:13.053Z,1.50
2022-08-22T12:09:41.441Z,1.67
2022-08-22T12:14:52.561Z,1.05
2022-08-22T12:20:17.047Z,1.08
2022-08-22T12:25:38.271Z,0.88
2022-08-22T12:31:05.341Z,1.10
2022-08-22T12:36:23.254Z,0.73
2022-08-22T12:42:04.152Z,1.15
2022-08-22T12:47:26.437Z,1.15
2022-08-22T12:52:55.314Z,1.23
2022-08-22T12:58:11.791Z,1.08
2022-08-22T13:03:25.921Z,0.95
2022-08-22T13:08:33.646Z,1.00
2022-08-22T13:13:45.018Z,1.10
2022-08-22T13:19:07.782Z,1.05
2022-08-22T13:24:22.558Z,1.33
2022-08-22T13:29:49.909Z,1.00
2022-08-22T13:34:57.829Z,1.23
2022-08-22T13:40:06.276Z,2.17
2022-08-22T13:45:20.263Z,0.98
2022-08-22T13:50:37.041Z,1.13
2022-08-22T13:56:15.895Z,0.68
2022-08-22T14:01:41.845Z,0.90
2022-08-22T14:06:54.254Z,0.85
2022-08-22T14:12:12.203Z,0.98
2022-08-22T14:17:22.382Z,1.75
2022-08-22T14:22:35.434Z,1.10
2022-08-22T14:27:47.323Z,1.10
2022-08-22T14:32:59.552Z,0.95
2022-08-22T14:38:19.150Z,1.35
2022-08-22T14:43:40.578Z,1.00
2022-08-22T14:48:57.956Z,0.88
2022-08-22T14:54:14.158Z,1.15
2022-08-22T14:59:34.538Z,1.13
2022-08-22T15:04:48.433Z,0.50
2022-08-22T15:09:56.477Z,0.80
2022-08-22T15:15:03.080Z,0.90
2022-08-22T15:25:42.766Z,1.17
2022-08-22T15:31:05.442Z,0.82
2022-08-22T15:36:17.474Z,0.82
2022-08-22T15:41:44.538Z,0.80
2022-08-22T15:47:03.211Z,0.77
2022-08-22T15:52:23.322Z,0.98
2022-08-22T15:57:35.124Z,0.88
2022-08-22T16:02:43.460Z,0.90
2022-08-22T16:08:08.626Z,1.00
2022-08-22T16:13:42.680Z,0.85
2022-08-22T16:19:23.132Z,0.75
2022-08-22T16:24:37.632Z,0.55
2022-08-22T16:29:44.511Z,0.75
2022-08-22T16:34:50.534Z,0.52
2022-08-22T16:40:14.468Z,0.85
2022-08-22T16:45:22.898Z,0.73
2022-08-22T16:50:37.601Z,0.73
2022-08-22T16:55:55.439Z,1.23
2022-08-22T17:01:07.659Z,0.95
2022-08-22T17:06:26.014Z,0.85
2022-08-22T17:11:43.961Z,1.13
2022-08-22T17:17:01.525Z,1.52
2022-08-22T17:22:14.064Z,1.17
2022-08-22T17:27:28.129Z,1.13
2022-08-22T17:32:47.109Z,1.08
2022-08-22T17:38:10.702Z,1.83
2022-08-22T17:43:27.851Z,1.90
2022-08-22T17:48:46.208Z,2.90
2022-08-22T17:53:54.495Z,1.42
2022-08-22T17:59:06.804Z,2.05
2022-08-22T18:04:17.193Z,2.28
2022-08-22T18:09:27.877Z,3.08
2022-08-22T18:14:41.081Z,3.38
2022-08-22T18:19:54.846Z,3.05
2022-08-22T18:25:04.709Z,2.47
2022-08-22T18:30:20.959Z,3.45
2022-08-22T18:35:29.029Z,3.08
2022-08-22T18:40:43.501Z,3.50
2022-08-22T18:46:04.441Z,2.35
2022-08-22T18:51:24.425Z,1.55
2022-08-22T18:56:48.741Z,2.17
2022-08-22T19:02:07.814Z,2.00
2022-08-22T19:07:23.817Z,1.80
2022-08-22T19:12:42.404Z,2.60
2022-08-22T19:18:07.325Z,2.22
2022-08-22T19:23:43.875Z,2.45
2022-08-22T19:28:49.120Z,2.65
2022-08-22T19:34:17.298Z,2.83
2022-08-22T19:40:00.895Z,2.40
2022-08-22T19:45:11.614Z,1.38
2022-08-22T19:50:31.021Z,1.27
2022-08-22T19:55:49.741Z,1.48
2022-08-22T20:00:57.566Z,1.50
2022-08-22T20:06:22.069Z,1.38
2022-08-22T20:11:44.184Z,1.13
2022-08-22T20:17:14.279Z,1.17
2022-08-22T20:22:25.242Z,1.30
2022-08-22T20:27:35.612Z,1.63
2022-08-22T20:32:44.106Z,2.33
2022-08-22T20:38:06.637Z,1.85
2022-08-22T20:43:20.111Z,1.50
2022-08-22T20:48:27.201Z,1.20
2022-08-22T20:53:35.304Z,2.47
2022-08-22T20:58:48.486Z,3.45
2022-08-22T21:09:27.766Z,1.50
2022-08-22T21:14:37.721Z,1.63
2022-08-22T21:19:42.809Z,2.22
2022-08-22T21:24:50.596Z,2.17
2022-08-22T21:29:55.672Z,2.10
2022-08-22T21:35:01.234Z,2.20
2022-08-22T21:40:14.746Z,2.50
2022-08-22T21:45:30.196Z,2.33
2022-08-22T21:50:38.470Z,2.97
2022-08-22T21:55:48.113Z,3.33
2022-08-22T22:00:55.180Z,2.58
2022-08-22T22:06:06.700Z,2.60
2022-08-22T22:11:16.393Z,2.53
2022-08-22T22:16:29.080Z,2.25
2022-08-22T22:21:34.147Z,2.10
2022-08-22T22:26:41.964Z,2.00
2022-08-22T22:31:47.086Z,2.47
2022-08-22T22:36:52.415Z,1.95
2022-08-22T22:42:00.148Z,2.28
2022-08-22T22:47:06.591Z,2.22
2022-08-22T22:52:11.851Z,3.78
2022-08-22T22:57:25.328Z,2.65
2022-08-22T23:02:30.836Z,2.33
2022-08-22T23:07:36.090Z,2.42
2022-08-22T23:12:44.087Z,2.70
2022-08-22T23:17:49.588Z,3.90
2022-08-22T23:22:54.718Z,6.15
2022-08-22T23:28:02.730Z,5.20
2022-08-22T23:33:07.956Z,3.95
2022-08-22T23:38:12.991Z,2.72
2022-08-22T23:43:20.630Z,2.95
2022-08-22T23:48:25.777Z,2.97
2022-08-22T23:53:31.486Z,3.33
2022-08-22T23:58:39.629Z,3.40
